Terminal Aerodrome Forecast
Issued by NWS

Home | Current Version | Previous Version | Text Only | Print | Product List | Glossary On
Versions: 1 2 3 4 5 6 7 8 9 10 11 12 13 14 15 16 17 18 19 20 21 22 23 24 25
000
FTUS43 KLSX 271638 AAC
TAFCPS
TAF AMD
KCPS 271638Z 2717/2812 16010G18KT P6SM BKN012
      TEMPO 2717/2718 BKN009
     FM271900 16010G18KT P6SM SCT040 BKN100
     FM272100 16012G20KT 6SM -SHRA VCTS SCT050CB BKN100
     FM280300 17008KT P6SM SCT050 BKN100=

USA.gov is the U.S. government's official web portal to all federal, state and local government web resources and services.